sensor_id;sensor_type;location;lat;lon;timestamp;temperature;humidity
3492;DHT22;1760;52.480;13.422;2022-12-28T00:01:06;5.40;99.90
3492;DHT22;1760;52.480;13.422;2022-12-28T00:03:33;5.40;99.90
3492;DHT22;1760;52.480;13.422;2022-12-28T00:06:00;5.40;99.90
3492;DHT22;1760;52.480;13.422;2022-12-28T00:08:34;5.30;99.90
3492;DHT22;1760;52.480;13.422;2022-12-28T00:11:05;5.40;99.90
3492;DHT22;1760;52.480;13.422;2022-12-28T00:13:34;5.40;99.90
3492;DHT22;1760;52.480;13.422;2022-12-28T00:16:05;5.40;99.90
3492;DHT22;1760;52.480;13.422;2022-12-28T00:18:34;5.40;99.90
3492;DHT22;1760;52.480;13.422;2022-12-28T00:21:04;5.40;99.90
3492;DHT22;1760;52.480;13.422;2022-12-28T00:23:38;5.40;99.90
3492;DHT22;1760;52.480;13.422;2022-12-28T00:26:07;5.40;99.90
3492;DHT22;1760;52.480;13.422;2022-12-28T00:28:35;5.40;99.90
3492;DHT22;1760;52.480;13.422;2022-12-28T00:31:03;5.50;99.90
3492;DHT22;1760;52.480;13.422;2022-12-28T00:33:30;5.50;99.90
3492;DHT22;1760;52.480;13.422;2022-12-28T00:36:01;5.40;99.90
3492;DHT22;1760;52.480;13.422;2022-12-28T00:38:29;5.50;99.90
3492;DHT22;1760;52.480;13.422;2022-12-28T00:41:02;5.50;99.90
3492;DHT22;1760;52.480;13.422;2022-12-28T00:43:30;5.50;99.90
3492;DHT22;1760;52.480;13.422;2022-12-28T00:45:58;5.60;99.90
3492;DHT22;1760;52.480;13.422;2022-12-28T00:48:27;5.50;99.90
3492;DHT22;1760;52.480;13.422;2022-12-28T00:51:00;5.60;99.90
3492;DHT22;1760;52.480;13.422;2022-12-28T00:53:27;5.70;99.90
3492;DHT22;1760;52.480;13.422;2022-12-28T00:56:04;5.60;99.90
3492;DHT22;1760;52.480;13.422;2022-12-28T00:58:33;5.70;99.90
3492;DHT22;1760;52.480;13.422;2022-12-28T01:01:01;5.70;99.90
3492;DHT22;1760;52.480;13.422;2022-12-28T01:03:28;5.70;99.90
3492;DHT22;1760;52.480;13.422;2022-12-28T01:05:55;5.70;99.90
3492;DHT22;1760;52.480;13.422;2022-12-28T01:08:22;5.70;99.90
3492;DHT22;1760;52.480;13.422;2022-12-28T01:10:52;5.80;99.90
3492;DHT22;1760;52.480;13.422;2022-12-28T01:13:23;5.80;99.90
3492;DHT22;1760;52.480;13.422;2022-12-28T01:15:50;5.80;99.90
3492;DHT22;1760;52.480;13.422;2022-12-28T01:18:21;5.90;99.90
3492;DHT22;1760;52.480;13.422;2022-12-28T01:20:49;5.90;99.90
3492;DHT22;1760;52.480;13.422;2022-12-28T01:23:16;5.80;99.90
3492;DHT22;1760;52.480;13.422;2022-12-28T01:25:48;5.90;99.90
3492;DHT22;1760;52.480;13.422;2022-12-28T01:28:16;5.90;99.90
3492;DHT22;1760;52.480;13.422;2022-12-28T01:30:55;5.90;99.90
3492;DHT22;1760;52.480;13.422;2022-12-28T01:33:24;5.90;99.90
3492;DHT22;1760;52.480;13.422;2022-12-28T01:35:50;5.90;99.90
3492;DHT22;1760;52.480;13.422;2022-12-28T01:38:20;5.90;99.90
3492;DHT22;1760;52.480;13.422;2022-12-28T01:40:47;5.80;99.90
3492;DHT22;1760;52.480;13.422;2022-12-28T01:43:16;5.80;99.90
3492;DHT22;1760;52.480;13.422;2022-12-28T01:45:49;5.80;99.90
3492;DHT22;1760;52.480;13.422;2022-12-28T01:48:19;5.80;99.90
3492;DHT22;1760;52.480;13.422;2022-12-28T01:50:51;5.80;99.90
3492;DHT22;1760;52.480;13.422;2022-12-28T01:53:20;5.80;99.90
3492;DHT22;1760;52.480;13.422;2022-12-28T01:55:48;5.70;99.90
3492;DHT22;1760;52.480;13.422;2022-12-28T01:58:18;5.70;99.90
3492;DHT22;1760;52.480;13.422;2022-12-28T02:00:55;5.70;99.90
3492;DHT22;1760;52.480;13.422;2022-12-28T02:03:28;5.70;99.90
3492;DHT22;1760;52.480;13.422;2022-12-28T02:06:03;5.60;99.90
3492;DHT22;1760;52.480;13.422;2022-12-28T02:08:37;5.60;99.90
3492;DHT22;1760;52.480;13.422;2022-12-28T02:11:10;5.60;99.90
3492;DHT22;1760;52.480;13.422;2022-12-28T02:13:43;5.60;99.90
3492;DHT22;1760;52.480;13.422;2022-12-28T02:16:13;5.50;99.90
3492;DHT22;1760;52.480;13.422;2022-12-28T02:18:47;5.50;99.90
3492;DHT22;1760;52.480;13.422;2022-12-28T02:21:24;5.50;99.90
3492;DHT22;1760;52.480;13.422;2022-12-28T02:26:55;5.40;99.90
3492;DHT22;1760;52.480;13.422;2022-12-28T02:29:50;5.40;99.90
3492;DHT22;1760;52.480;13.422;2022-12-28T02:32:32;5.30;99.90
3492;DHT22;1760;52.480;13.422;2022-12-28T02:35:04;5.40;99.90
3492;DHT22;1760;52.480;13.422;2022-12-28T02:37:37;5.40;99.90
3492;DHT22;1760;52.480;13.422;2022-12-28T02:40:08;5.30;99.90
3492;DHT22;1760;52.480;13.422;2022-12-28T02:42:38;5.30;99.90
3492;DHT22;1760;52.480;13.422;2022-12-28T02:45:28;5.30;99.90
3492;DHT22;1760;52.480;13.422;2022-12-28T02:48:13;5.20;99.90
3492;DHT22;1760;52.480;13.422;2022-12-28T02:51:13;5.20;99.90
3492;DHT22;1760;52.480;13.422;2022-12-28T02:54:11;5.20;99.90
3492;DHT22;1760;52.480;13.422;2022-12-28T02:57:02;5.20;99.90
3492;DHT22;1760;52.480;13.422;2022-12-28T02:59:46;5.20;99.90
3492;DHT22;1760;52.480;13.422;2022-12-28T03:02:37;5.20;99.90
3492;DHT22;1760;52.480;13.422;2022-12-28T03:05:12;5.10;99.90
3492;DHT22;1760;52.480;13.422;2022-12-28T03:07:49;5.10;99.90
3492;DHT22;1760;52.480;13.422;2022-12-28T03:10:43;5.00;99.90
3492;DHT22;1760;52.480;13.422;2022-12-28T03:13:16;5.00;99.90
3492;DHT22;1760;52.480;13.422;2022-12-28T03:16:06;5.00;99.90
3492;DHT22;1760;52.480;13.422;2022-12-28T03:18:36;5.00;99.90
3492;DHT22;1760;52.480;13.422;2022-12-28T03:21:23;4.90;99.90
3492;DHT22;1760;52.480;13.422;2022-12-28T03:24:11;4.80;99.90
3492;DHT22;1760;52.480;13.422;2022-12-28T03:26:58;4.90;99.90
3492;DHT22;1760;52.480;13.422;2022-12-28T03:30:00;4.80;99.90
3492;DHT22;1760;52.480;13.422;2022-12-28T03:32:51;4.90;99.90
3492;DHT22;1760;52.480;13.422;2022-12-28T03:35:25;4.80;99.90
3492;DHT22;1760;52.480;13.422;2022-12-28T03:37:58;4.80;99.90
3492;DHT22;1760;52.480;13.422;2022-12-28T03:40:31;4.70;99.90
3492;DHT22;1760;52.480;13.422;2022-12-28T03:43:03;4.70;99.90
3492;DHT22;1760;52.480;13.422;2022-12-28T03:45:53;4.70;99.90
3492;DHT22;1760;52.480;13.422;2022-12-28T03:48:22;4.70;99.90
3492;DHT22;1760;52.480;13.422;2022-12-28T03:50:52;4.80;99.90
3492;DHT22;1760;52.480;13.422;2022-12-28T03:53:25;4.70;99.90
3492;DHT22;1760;52.480;13.422;2022-12-28T03:56:03;4.70;99.90
3492;DHT22;1760;52.480;13.422;2022-12-28T03:58:30;4.70;99.90
3492;DHT22;1760;52.480;13.422;2022-12-28T04:00:57;4.70;99.90
3492;DHT22;1760;52.480;13.422;2022-12-28T04:03:24;4.60;99.90
3492;DHT22;1760;52.480;13.422;2022-12-28T04:05:56;4.60;99.90
3492;DHT22;1760;52.480;13.422;2022-12-28T04:08:23;4.60;99.90
3492;DHT22;1760;52.480;13.422;2022-12-28T04:10:50;4.60;99.90
3492;DHT22;1760;52.480;13.422;2022-12-28T04:13:17;4.60;99.90
3492;DHT22;1760;52.480;13.422;2022-12-28T04:15:43;4.60;99.90
3492;DHT22;1760;52.480;13.422;2022-12-28T04:18:20;4.60;99.90
3492;DHT22;1760;52.480;13.422;2022-12-28T04:20:46;4.70;99.90
3492;DHT22;1760;52.480;13.422;2022-12-28T04:23:22;4.60;99.90
3492;DHT22;1760;52.480;13.422;2022-12-28T04:26:00;4.70;99.90
3492;DHT22;1760;52.480;13.422;2022-12-28T04:28:27;4.70;99.90
3492;DHT22;1760;52.480;13.422;2022-12-28T04:30:57;4.60;99.90
3492;DHT22;1760;52.480;13.422;2022-12-28T04:33:26;4.60;99.90
3492;DHT22;1760;52.480;13.422;2022-12-28T04:36:05;4.60;99.90
3492;DHT22;1760;52.480;13.422;2022-12-28T04:38:34;4.60;99.90
3492;DHT22;1760;52.480;13.422;2022-12-28T04:41:01;4.60;99.90
3492;DHT22;1760;52.480;13.422;2022-12-28T04:43:30;4.60;99.90
3492;DHT22;1760;52.480;13.422;2022-12-28T04:46:00;4.60;99.90
3492;DHT22;1760;52.480;13.422;2022-12-28T04:48:30;4.70;99.90
3492;DHT22;1760;52.480;13.422;2022-12-28T04:51:05;4.70;99.90
3492;DHT22;1760;52.480;13.422;2022-12-28T04:53:36;4.70;99.90
3492;DHT22;1760;52.480;13.422;2022-12-28T04:56:04;4.70;99.90
3492;DHT22;1760;52.480;13.422;2022-12-28T04:58:31;4.70;99.90
3492;DHT22;1760;52.480;13.422;2022-12-28T05:01:02;4.70;99.90
3492;DHT22;1760;52.480;13.422;2022-12-28T05:03:30;4.80;99.90
3492;DHT22;1760;52.480;13.422;2022-12-28T05:05:59;4.80;99.90
3492;DHT22;1760;52.480;13.422;2022-12-28T05:08:28;4.80;99.90
3492;DHT22;1760;52.480;13.422;2022-12-28T05:10:59;4.70;99.90
3492;DHT22;1760;52.480;13.422;2022-12-28T05:13:29;4.70;99.90
3492;DHT22;1760;52.480;13.422;2022-12-28T05:15:59;4.70;99.90
3492;DHT22;1760;52.480;13.422;2022-12-28T05:18:26;4.70;99.90
3492;DHT22;1760;52.480;13.422;2022-12-28T05:20:58;4.70;99.90
3492;DHT22;1760;52.480;13.422;2022-12-28T05:23:28;4.70;99.90
3492;DHT22;1760;52.480;13.422;2022-12-28T05:25:59;4.70;99.90
3492;DHT22;1760;52.480;13.422;2022-12-28T05:28:29;4.80;99.90
3492;DHT22;1760;52.480;13.422;2022-12-28T05:30:59;4.80;99.90
3492;DHT22;1760;52.480;13.422;2022-12-28T05:33:27;4.80;99.90
3492;DHT22;1760;52.480;13.422;2022-12-28T05:35:54;4.90;99.90
3492;DHT22;1760;52.480;13.422;2022-12-28T05:38:21;4.80;99.90
3492;DHT22;1760;52.480;13.422;2022-12-28T05:40:52;4.80;99.90
3492;DHT22;1760;52.480;13.422;2022-12-28T05:43:23;4.90;99.90
3492;DHT22;1760;52.480;13.422;2022-12-28T05:45:50;4.90;99.90
3492;DHT22;1760;52.480;13.422;2022-12-28T05:48:17;4.90;99.90
3492;DHT22;1760;52.480;13.422;2022-12-28T05:50:44;4.90;99.90
3492;DHT22;1760;52.480;13.422;2022-12-28T05:53:11;4.90;99.90
3492;DHT22;1760;52.480;13.422;2022-12-28T05:55:38;5.00;99.90
3492;DHT22;1760;52.480;13.422;2022-12-28T05:58:05;5.00;99.90
3492;DHT22;1760;52.480;13.422;2022-12-28T06:00:34;5.00;99.90
3492;DHT22;1760;52.480;13.422;2022-12-28T06:03:01;5.00;99.90
3492;DHT22;1760;52.480;13.422;2022-12-28T06:05:28;5.00;99.90
3492;DHT22;1760;52.480;13.422;2022-12-28T06:07:55;5.00;99.90
3492;DHT22;1760;52.480;13.422;2022-12-28T06:10:29;5.00;99.90
3492;DHT22;1760;52.480;13.422;2022-12-28T06:12:56;5.00;99.90
3492;DHT22;1760;52.480;13.422;2022-12-28T06:15:23;5.00;99.90
3492;DHT22;1760;52.480;13.422;2022-12-28T06:17:52;5.00;99.90
3492;DHT22;1760;52.480;13.422;2022-12-28T06:20:19;5.00;99.90
3492;DHT22;1760;52.480;13.422;2022-12-28T06:22:52;5.10;99.90
3492;DHT22;1760;52.480;13.422;2022-12-28T06:25:19;5.10;99.90
3492;DHT22;1760;52.480;13.422;2022-12-28T06:27:46;5.10;99.90
3492;DHT22;1760;52.480;13.422;2022-12-28T06:30:15;5.10;99.90
3492;DHT22;1760;52.480;13.422;2022-12-28T06:32:41;5.10;99.90
3492;DHT22;1760;52.480;13.422;2022-12-28T06:35:10;5.20;99.90
3492;DHT22;1760;52.480;13.422;2022-12-28T06:37:37;5.20;99.90
3492;DHT22;1760;52.480;13.422;2022-12-28T06:40:04;5.30;99.90
3492;DHT22;1760;52.480;13.422;2022-12-28T06:42:31;5.30;99.90
3492;DHT22;1760;52.480;13.422;2022-12-28T06:44:58;5.30;99.90
3492;DHT22;1760;52.480;13.422;2022-12-28T06:47:25;5.30;99.90
3492;DHT22;1760;52.480;13.422;2022-12-28T06:49:52;5.30;99.90
3492;DHT22;1760;52.480;13.422;2022-12-28T06:52:21;5.30;99.90
3492;DHT22;1760;52.480;13.422;2022-12-28T06:54:48;5.30;99.90
3492;DHT22;1760;52.480;13.422;2022-12-28T06:57:15;5.20;99.90
3492;DHT22;1760;52.480;13.422;2022-12-28T06:59:42;5.20;99.90
3492;DHT22;1760;52.480;13.422;2022-12-28T07:02:09;5.20;99.90
3492;DHT22;1760;52.480;13.422;2022-12-28T07:04:36;5.20;99.90
3492;DHT22;1760;52.480;13.422;2022-12-28T07:07:05;5.10;99.90
3492;DHT22;1760;52.480;13.422;2022-12-28T07:09:35;5.10;99.90
3492;DHT22;1760;52.480;13.422;2022-12-28T07:12:05;5.10;99.90
3492;DHT22;1760;52.480;13.422;2022-12-28T07:14:32;5.10;99.90
3492;DHT22;1760;52.480;13.422;2022-12-28T07:16:59;5.10;99.90
3492;DHT22;1760;52.480;13.422;2022-12-28T07:19:28;5.00;99.90
3492;DHT22;1760;52.480;13.422;2022-12-28T07:21:55;5.00;99.90
3492;DHT22;1760;52.480;13.422;2022-12-28T07:24:24;5.00;99.90
3492;DHT22;1760;52.480;13.422;2022-12-28T07:26:53;5.00;99.90
3492;DHT22;1760;52.480;13.422;2022-12-28T07:29:22;5.10;99.90
3492;DHT22;1760;52.480;13.422;2022-12-28T07:31:49;5.10;99.90
3492;DHT22;1760;52.480;13.422;2022-12-28T07:34:15;5.10;99.90
3492;DHT22;1760;52.480;13.422;2022-12-28T07:36:42;5.10;99.90
3492;DHT22;1760;52.480;13.422;2022-12-28T07:39:09;5.20;99.90
3492;DHT22;1760;52.480;13.422;2022-12-28T07:41:39;5.20;99.90
3492;DHT22;1760;52.480;13.422;2022-12-28T07:44:07;5.20;99.90
3492;DHT22;1760;52.480;13.422;2022-12-28T07:46:36;5.20;99.90
3492;DHT22;1760;52.480;13.422;2022-12-28T07:49:03;5.30;99.90
3492;DHT22;1760;52.480;13.422;2022-12-28T07:51:31;5.20;99.90
3492;DHT22;1760;52.480;13.422;2022-12-28T07:53:59;5.30;99.90
3492;DHT22;1760;52.480;13.422;2022-12-28T07:56:27;5.30;99.90
3492;DHT22;1760;52.480;13.422;2022-12-28T07:58:56;5.40;99.90
3492;DHT22;1760;52.480;13.422;2022-12-28T08:01:29;5.40;99.90
3492;DHT22;1760;52.480;13.422;2022-12-28T08:03:58;5.40;99.90
3492;DHT22;1760;52.480;13.422;2022-12-28T08:06:29;5.40;99.90
3492;DHT22;1760;52.480;13.422;2022-12-28T08:08:59;5.40;99.90
3492;DHT22;1760;52.480;13.422;2022-12-28T08:11:28;5.40;99.90
3492;DHT22;1760;52.480;13.422;2022-12-28T08:13:55;5.50;99.90
3492;DHT22;1760;52.480;13.422;2022-12-28T08:16:26;5.50;99.90
3492;DHT22;1760;52.480;13.422;2022-12-28T08:18:55;5.50;99.90
3492;DHT22;1760;52.480;13.422;2022-12-28T08:21:27;5.50;99.90
3492;DHT22;1760;52.480;13.422;2022-12-28T08:23:55;5.50;99.90
3492;DHT22;1760;52.480;13.422;2022-12-28T08:26:23;5.50;99.90
3492;DHT22;1760;52.480;13.422;2022-12-28T08:28:52;5.50;99.90
3492;DHT22;1760;52.480;13.422;2022-12-28T08:31:22;5.60;99.90
3492;DHT22;1760;52.480;13.422;2022-12-28T08:33:51;5.60;99.90
3492;DHT22;1760;52.480;13.422;2022-12-28T08:36:20;5.60;99.90
3492;DHT22;1760;52.480;13.422;2022-12-28T08:38:49;5.60;99.90
3492;DHT22;1760;52.480;13.422;2022-12-28T08:41:21;5.60;99.90
3492;DHT22;1760;52.480;13.422;2022-12-28T08:43:51;5.70;99.90
3492;DHT22;1760;52.480;13.422;2022-12-28T08:46:21;5.70;99.90
3492;DHT22;1760;52.480;13.422;2022-12-28T08:48:51;5.70;99.90
3492;DHT22;1760;52.480;13.422;2022-12-28T08:51:22;5.80;99.90
3492;DHT22;1760;52.480;13.422;2022-12-28T08:53:50;5.80;99.90
3492;DHT22;1760;52.480;13.422;2022-12-28T08:56:22;5.90;99.90
3492;DHT22;1760;52.480;13.422;2022-12-28T08:58:49;5.90;99.90
3492;DHT22;1760;52.480;13.422;2022-12-28T09:01:17;6.00;99.90
3492;DHT22;1760;52.480;13.422;2022-12-28T09:03:47;6.00;99.90
3492;DHT22;1760;52.480;13.422;2022-12-28T09:06:16;6.10;99.90
3492;DHT22;1760;52.480;13.422;2022-12-28T09:08:47;6.20;99.90
3492;DHT22;1760;52.480;13.422;2022-12-28T09:11:14;6.30;99.90
3492;DHT22;1760;52.480;13.422;2022-12-28T09:13:41;6.30;99.90
3492;DHT22;1760;52.480;13.422;2022-12-28T09:16:10;6.40;99.90
3492;DHT22;1760;52.480;13.422;2022-12-28T09:18:39;6.40;99.90
3492;DHT22;1760;52.480;13.422;2022-12-28T09:21:08;6.40;99.90
3492;DHT22;1760;52.480;13.422;2022-12-28T09:23:36;6.40;99.90
3492;DHT22;1760;52.480;13.422;2022-12-28T09:26:07;6.40;99.90
3492;DHT22;1760;52.480;13.422;2022-12-28T09:28:35;6.40;99.90
3492;DHT22;1760;52.480;13.422;2022-12-28T09:31:03;6.40;99.90
3492;DHT22;1760;52.480;13.422;2022-12-28T09:33:30;6.50;99.90
3492;DHT22;1760;52.480;13.422;2022-12-28T09:36:14;6.50;99.90
3492;DHT22;1760;52.480;13.422;2022-12-28T09:38:43;6.50;99.90
3492;DHT22;1760;52.480;13.422;2022-12-28T09:41:18;6.50;99.90
3492;DHT22;1760;52.480;13.422;2022-12-28T09:43:49;6.60;99.90
3492;DHT22;1760;52.480;13.422;2022-12-28T09:46:20;6.60;99.90
3492;DHT22;1760;52.480;13.422;2022-12-28T09:48:52;6.60;99.90
3492;DHT22;1760;52.480;13.422;2022-12-28T09:51:21;6.70;99.90
3492;DHT22;1760;52.480;13.422;2022-12-28T09:53:50;6.70;99.90
3492;DHT22;1760;52.480;13.422;2022-12-28T09:56:26;6.70;99.90
3492;DHT22;1760;52.480;13.422;2022-12-28T09:58:54;6.80;99.90
3492;DHT22;1760;52.480;13.422;2022-12-28T10:01:22;6.90;99.90
3492;DHT22;1760;52.480;13.422;2022-12-28T10:03:50;6.90;99.90
3492;DHT22;1760;52.480;13.422;2022-12-28T10:06:20;6.90;99.90
3492;DHT22;1760;52.480;13.422;2022-12-28T10:08:49;7.00;99.90
3492;DHT22;1760;52.480;13.422;2022-12-28T10:11:21;7.00;99.90
3492;DHT22;1760;52.480;13.422;2022-12-28T10:13:56;7.00;99.90
3492;DHT22;1760;52.480;13.422;2022-12-28T10:16:24;7.00;99.90
3492;DHT22;1760;52.480;13.422;2022-12-28T10:18:52;7.10;99.90
3492;DHT22;1760;52.480;13.422;2022-12-28T10:21:23;7.10;99.90
3492;DHT22;1760;52.480;13.422;2022-12-28T10:23:55;7.20;99.90
3492;DHT22;1760;52.480;13.422;2022-12-28T10:26:24;7.20;99.90
3492;DHT22;1760;52.480;13.422;2022-12-28T10:28:52;7.20;99.90
3492;DHT22;1760;52.480;13.422;2022-12-28T10:31:30;7.20;99.90
3492;DHT22;1760;52.480;13.422;2022-12-28T10:33:58;7.30;99.90
3492;DHT22;1760;52.480;13.422;2022-12-28T10:36:26;7.30;99.90
3492;DHT22;1760;52.480;13.422;2022-12-28T10:38:54;7.30;99.90
3492;DHT22;1760;52.480;13.422;2022-12-28T10:41:34;7.30;99.90
3492;DHT22;1760;52.480;13.422;2022-12-28T10:44:16;7.30;99.90
3492;DHT22;1760;52.480;13.422;2022-12-28T10:46:51;7.30;99.90
3492;DHT22;1760;52.480;13.422;2022-12-28T10:49:20;7.30;99.90
3492;DHT22;1760;52.480;13.422;2022-12-28T10:51:59;7.30;99.90
3492;DHT22;1760;52.480;13.422;2022-12-28T10:54:26;7.30;99.90
3492;DHT22;1760;52.480;13.422;2022-12-28T10:56:54;7.30;99.90
3492;DHT22;1760;52.480;13.422;2022-12-28T10:59:24;7.30;99.90
3492;DHT22;1760;52.480;13.422;2022-12-28T11:01:53;7.40;99.90
3492;DHT22;1760;52.480;13.422;2022-12-28T11:04:23;7.40;99.90
3492;DHT22;1760;52.480;13.422;2022-12-28T11:06:51;7.40;99.90
3492;DHT22;1760;52.480;13.422;2022-12-28T11:09:21;7.50;99.90
3492;DHT22;1760;52.480;13.422;2022-12-28T11:11:50;7.50;99.90
3492;DHT22;1760;52.480;13.422;2022-12-28T11:14:25;7.60;99.90
3492;DHT22;1760;52.480;13.422;2022-12-28T11:16:56;7.60;99.90
3492;DHT22;1760;52.480;13.422;2022-12-28T11:19:24;7.70;99.90
3492;DHT22;1760;52.480;13.422;2022-12-28T11:21:51;7.70;99.90
3492;DHT22;1760;52.480;13.422;2022-12-28T11:24:23;7.80;99.90
3492;DHT22;1760;52.480;13.422;2022-12-28T11:26:51;7.80;99.90
3492;DHT22;1760;52.480;13.422;2022-12-28T11:29:18;7.80;99.90
3492;DHT22;1760;52.480;13.422;2022-12-28T11:31:48;7.90;99.90
3492;DHT22;1760;52.480;13.422;2022-12-28T11:34:18;8.00;99.90
3492;DHT22;1760;52.480;13.422;2022-12-28T11:36:46;8.00;99.90
3492;DHT22;1760;52.480;13.422;2022-12-28T11:39:41;8.00;99.90
3492;DHT22;1760;52.480;13.422;2022-12-28T11:42:09;8.00;99.90
3492;DHT22;1760;52.480;13.422;2022-12-28T11:44:52;8.10;99.90
3492;DHT22;1760;52.480;13.422;2022-12-28T11:47:27;8.10;99.90
3492;DHT22;1760;52.480;13.422;2022-12-28T11:53:18;8.20;99.90
3492;DHT22;1760;52.480;13.422;2022-12-28T11:56:04;8.20;99.90
3492;DHT22;1760;52.480;13.422;2022-12-28T11:59:02;8.20;99.90
3492;DHT22;1760;52.480;13.422;2022-12-28T12:01:44;8.20;99.90
3492;DHT22;1760;52.480;13.422;2022-12-28T12:07:16;8.30;99.90
3492;DHT22;1760;52.480;13.422;2022-12-28T12:09:47;8.20;99.90
3492;DHT22;1760;52.480;13.422;2022-12-28T12:12:45;8.20;99.90
3492;DHT22;1760;52.480;13.422;2022-12-28T12:15:15;8.30;99.90
3492;DHT22;1760;52.480;13.422;2022-12-28T12:17:46;8.30;99.90
3492;DHT22;1760;52.480;13.422;2022-12-28T12:20:22;8.30;99.90
3492;DHT22;1760;52.480;13.422;2022-12-28T12:22:54;8.30;99.90
3492;DHT22;1760;52.480;13.422;2022-12-28T12:25:25;8.30;99.90
3492;DHT22;1760;52.480;13.422;2022-12-28T12:27:57;8.20;99.90
3492;DHT22;1760;52.480;13.422;2022-12-28T12:30:25;8.30;99.90
3492;DHT22;1760;52.480;13.422;2022-12-28T12:32:57;8.40;99.90
3492;DHT22;1760;52.480;13.422;2022-12-28T12:35:27;8.50;99.90
3492;DHT22;1760;52.480;13.422;2022-12-28T12:37:58;8.50;99.90
3492;DHT22;1760;52.480;13.422;2022-12-28T12:43:40;8.50;99.90
3492;DHT22;1760;52.480;13.422;2022-12-28T12:46:42;8.60;99.90
3492;DHT22;1760;52.480;13.422;2022-12-28T12:49:35;8.60;99.90
3492;DHT22;1760;52.480;13.422;2022-12-28T12:52:25;8.60;99.90
3492;DHT22;1760;52.480;13.422;2022-12-28T12:55:14;8.60;99.90
3492;DHT22;1760;52.480;13.422;2022-12-28T12:57:52;8.80;99.90
3492;DHT22;1760;52.480;13.422;2022-12-28T13:00:20;8.80;99.90
3492;DHT22;1760;52.480;13.422;2022-12-28T13:03:12;8.90;99.90
3492;DHT22;1760;52.480;13.422;2022-12-28T13:05:43;8.90;99.90
3492;DHT22;1760;52.480;13.422;2022-12-28T13:08:23;9.00;99.90
3492;DHT22;1760;52.480;13.422;2022-12-28T13:10:51;9.00;99.90
3492;DHT22;1760;52.480;13.422;2022-12-28T13:13:27;9.00;99.90
3492;DHT22;1760;52.480;13.422;2022-12-28T13:15:58;9.10;99.90
3492;DHT22;1760;52.480;13.422;2022-12-28T13:18:26;9.10;99.90
3492;DHT22;1760;52.480;13.422;2022-12-28T13:20:55;9.20;99.90
3492;DHT22;1760;52.480;13.422;2022-12-28T13:23:27;9.20;99.90
3492;DHT22;1760;52.480;13.422;2022-12-28T13:25:55;9.20;99.90
3492;DHT22;1760;52.480;13.422;2022-12-28T13:28:27;9.20;99.90
3492;DHT22;1760;52.480;13.422;2022-12-28T13:30:57;9.20;99.90
3492;DHT22;1760;52.480;13.422;2022-12-28T13:33:27;9.20;99.90
3492;DHT22;1760;52.480;13.422;2022-12-28T13:36:11;9.20;99.90
3492;DHT22;1760;52.480;13.422;2022-12-28T13:38:40;9.20;99.90
3492;DHT22;1760;52.480;13.422;2022-12-28T13:41:18;9.20;99.90
3492;DHT22;1760;52.480;13.422;2022-12-28T13:44:17;9.20;99.90
3492;DHT22;1760;52.480;13.422;2022-12-28T13:46:50;9.20;99.90
3492;DHT22;1760;52.480;13.422;2022-12-28T13:49:19;9.10;99.90
3492;DHT22;1760;52.480;13.422;2022-12-28T13:51:48;9.10;99.90
3492;DHT22;1760;52.480;13.422;2022-12-28T13:54:17;9.10;99.90
3492;DHT22;1760;52.480;13.422;2022-12-28T13:56:44;9.10;99.90
3492;DHT22;1760;52.480;13.422;2022-12-28T13:59:15;9.00;99.90
3492;DHT22;1760;52.480;13.422;2022-12-28T14:01:45;9.00;99.90
3492;DHT22;1760;52.480;13.422;2022-12-28T14:04:18;8.90;99.90
3492;DHT22;1760;52.480;13.422;2022-12-28T14:06:46;8.90;99.90
3492;DHT22;1760;52.480;13.422;2022-12-28T14:09:16;8.90;99.90
3492;DHT22;1760;52.480;13.422;2022-12-28T14:11:45;8.90;99.90
3492;DHT22;1760;52.480;13.422;2022-12-28T14:14:15;8.80;99.90
3492;DHT22;1760;52.480;13.422;2022-12-28T14:16:43;8.90;99.90
3492;DHT22;1760;52.480;13.422;2022-12-28T14:19:10;8.90;99.90
3492;DHT22;1760;52.480;13.422;2022-12-28T14:21:39;8.80;99.90
3492;DHT22;1760;52.480;13.422;2022-12-28T14:24:09;8.80;99.90
3492;DHT22;1760;52.480;13.422;2022-12-28T14:26:43;8.80;99.90
3492;DHT22;1760;52.480;13.422;2022-12-28T14:29:18;8.70;99.90
3492;DHT22;1760;52.480;13.422;2022-12-28T14:31:46;8.70;99.90
3492;DHT22;1760;52.480;13.422;2022-12-28T14:34:23;8.70;99.90
3492;DHT22;1760;52.480;13.422;2022-12-28T14:36:52;8.60;99.90
3492;DHT22;1760;52.480;13.422;2022-12-28T14:39:27;8.60;99.90
3492;DHT22;1760;52.480;13.422;2022-12-28T14:41:56;8.60;99.90
3492;DHT22;1760;52.480;13.422;2022-12-28T14:44:27;8.50;99.90
3492;DHT22;1760;52.480;13.422;2022-12-28T14:46:58;8.50;99.90
3492;DHT22;1760;52.480;13.422;2022-12-28T14:49:35;8.50;99.90
3492;DHT22;1760;52.480;13.422;2022-12-28T14:52:40;8.50;99.90
3492;DHT22;1760;52.480;13.422;2022-12-28T14:55:25;8.50;99.90
3492;DHT22;1760;52.480;13.422;2022-12-28T14:57:57;8.50;99.90
3492;DHT22;1760;52.480;13.422;2022-12-28T15:00:27;8.50;99.90
3492;DHT22;1760;52.480;13.422;2022-12-28T15:02:55;8.50;99.90
3492;DHT22;1760;52.480;13.422;2022-12-28T15:05:37;8.60;99.90
3492;DHT22;1760;52.480;13.422;2022-12-28T15:08:07;8.80;99.90
3492;DHT22;1760;52.480;13.422;2022-12-28T15:10:37;8.60;99.90
3492;DHT22;1760;52.480;13.422;2022-12-28T15:13:06;8.60;99.90
3492;DHT22;1760;52.480;13.422;2022-12-28T15:15:34;8.60;99.90
3492;DHT22;1760;52.480;13.422;2022-12-28T15:18:03;8.60;99.90
3492;DHT22;1760;52.480;13.422;2022-12-28T15:20:30;8.60;99.90
3492;DHT22;1760;52.480;13.422;2022-12-28T15:22:57;8.60;99.90
3492;DHT22;1760;52.480;13.422;2022-12-28T15:25:24;8.60;99.90
3492;DHT22;1760;52.480;13.422;2022-12-28T15:27:51;8.60;99.90
3492;DHT22;1760;52.480;13.422;2022-12-28T15:30:20;8.60;99.90
3492;DHT22;1760;52.480;13.422;2022-12-28T15:32:47;8.60;99.90
3492;DHT22;1760;52.480;13.422;2022-12-28T15:35:14;8.50;99.90
3492;DHT22;1760;52.480;13.422;2022-12-28T15:37:41;8.50;99.90
3492;DHT22;1760;52.480;13.422;2022-12-28T15:40:09;8.50;99.90
3492;DHT22;1760;52.480;13.422;2022-12-28T15:42:36;8.50;99.90
3492;DHT22;1760;52.480;13.422;2022-12-28T15:45:04;8.50;99.90
3492;DHT22;1760;52.480;13.422;2022-12-28T15:47:35;8.50;99.90
3492;DHT22;1760;52.480;13.422;2022-12-28T15:50:02;8.40;99.90
3492;DHT22;1760;52.480;13.422;2022-12-28T15:52:30;8.50;99.90
3492;DHT22;1760;52.480;13.422;2022-12-28T15:54:59;8.50;99.90
3492;DHT22;1760;52.480;13.422;2022-12-28T15:57:26;8.60;99.90
3492;DHT22;1760;52.480;13.422;2022-12-28T15:59:53;8.60;99.90
3492;DHT22;1760;52.480;13.422;2022-12-28T16:02:20;8.60;99.90
3492;DHT22;1760;52.480;13.422;2022-12-28T16:04:51;8.70;99.90
3492;DHT22;1760;52.480;13.422;2022-12-28T16:07:18;8.70;99.90
3492;DHT22;1760;52.480;13.422;2022-12-28T16:09:45;8.60;99.90
3492;DHT22;1760;52.480;13.422;2022-12-28T16:12:12;8.70;99.90
3492;DHT22;1760;52.480;13.422;2022-12-28T16:14:43;8.70;99.90
3492;DHT22;1760;52.480;13.422;2022-12-28T16:17:10;8.70;99.90
3492;DHT22;1760;52.480;13.422;2022-12-28T16:19:37;8.70;99.90
3492;DHT22;1760;52.480;13.422;2022-12-28T16:22:05;8.70;99.90
3492;DHT22;1760;52.480;13.422;2022-12-28T16:24:33;8.80;99.90
3492;DHT22;1760;52.480;13.422;2022-12-28T16:27:01;8.80;99.90
3492;DHT22;1760;52.480;13.422;2022-12-28T16:29:29;8.80;99.90
3492;DHT22;1760;52.480;13.422;2022-12-28T16:31:59;8.70;99.90
3492;DHT22;1760;52.480;13.422;2022-12-28T16:34:26;8.80;99.90
3492;DHT22;1760;52.480;13.422;2022-12-28T16:36:53;8.80;99.90
3492;DHT22;1760;52.480;13.422;2022-12-28T16:39:26;8.80;99.90
3492;DHT22;1760;52.480;13.422;2022-12-28T16:41:54;8.80;99.90